sensor_id;sensor_type;location;lat;lon;timestamp;temperature;humidity
37788;DHT22;23627;53.302;-6.362;2023-02-26T00:00:07;6.70;99.90
37788;DHT22;23627;53.302;-6.362;2023-02-26T00:02:36;6.70;99.90
37788;DHT22;23627;53.302;-6.362;2023-02-26T00:05:02;6.70;99.90
37788;DHT22;23627;53.302;-6.362;2023-02-26T00:07:28;6.70;99.90
37788;DHT22;23627;53.302;-6.362;2023-02-26T00:09:54;6.70;99.90
37788;DHT22;23627;53.302;-6.362;2023-02-26T00:12:20;6.70;99.90
37788;DHT22;23627;53.302;-6.362;2023-02-26T00:14:45;6.70;99.90
37788;DHT22;23627;53.302;-6.362;2023-02-26T00:17:29;6.60;99.90
37788;DHT22;23627;53.302;-6.362;2023-02-26T00:19:56;6.60;99.90
37788;DHT22;23627;53.302;-6.362;2023-02-26T00:22:22;6.70;99.90
37788;DHT22;23627;53.302;-6.362;2023-02-26T00:24:47;6.70;99.90
37788;DHT22;23627;53.302;-6.362;2023-02-26T00:27:13;6.60;99.90
37788;DHT22;23627;53.302;-6.362;2023-02-26T00:29:39;6.60;99.90
37788;DHT22;23627;53.302;-6.362;2023-02-26T00:32:05;6.60;99.90
37788;DHT22;23627;53.302;-6.362;2023-02-26T00:34:31;6.70;99.90
37788;DHT22;23627;53.302;-6.362;2023-02-26T00:42:12;6.60;99.90
37788;DHT22;23627;53.302;-6.362;2023-02-26T00:44:39;6.60;99.90
37788;DHT22;23627;53.302;-6.362;2023-02-26T00:47:17;6.60;99.90
37788;DHT22;23627;53.302;-6.362;2023-02-26T00:49:55;6.60;99.90
37788;DHT22;23627;53.302;-6.362;2023-02-26T00:52:28;6.60;99.90
37788;DHT22;23627;53.302;-6.362;2023-02-26T00:54:56;6.60;99.90
37788;DHT22;23627;53.302;-6.362;2023-02-26T00:57:22;6.60;99.90
37788;DHT22;23627;53.302;-6.362;2023-02-26T00:59:48;6.60;99.90
37788;DHT22;23627;53.302;-6.362;2023-02-26T01:02:13;6.50;99.90
37788;DHT22;23627;53.302;-6.362;2023-02-26T01:04:39;6.50;99.90
37788;DHT22;23627;53.302;-6.362;2023-02-26T01:07:05;6.50;99.90
37788;DHT22;23627;53.302;-6.362;2023-02-26T01:09:33;6.50;99.90
37788;DHT22;23627;53.302;-6.362;2023-02-26T01:12:00;6.50;99.90
37788;DHT22;23627;53.302;-6.362;2023-02-26T01:14:28;6.50;99.90
37788;DHT22;23627;53.302;-6.362;2023-02-26T01:16:56;6.50;99.90
37788;DHT22;23627;53.302;-6.362;2023-02-26T01:19:32;6.50;99.90
37788;DHT22;23627;53.302;-6.362;2023-02-26T01:22:05;6.50;99.90
37788;DHT22;23627;53.302;-6.362;2023-02-26T01:24:32;6.50;99.90
37788;DHT22;23627;53.302;-6.362;2023-02-26T01:26:58;6.50;99.90
37788;DHT22;23627;53.302;-6.362;2023-02-26T01:29:24;6.50;99.90
37788;DHT22;23627;53.302;-6.362;2023-02-26T01:32:01;6.50;99.90
37788;DHT22;23627;53.302;-6.362;2023-02-26T01:34:41;6.50;99.90
37788;DHT22;23627;53.302;-6.362;2023-02-26T01:42:37;6.50;99.90
37788;DHT22;23627;53.302;-6.362;2023-02-26T01:45:16;6.40;99.90
37788;DHT22;23627;53.302;-6.362;2023-02-26T01:50:12;6.50;99.90
37788;DHT22;23627;53.302;-6.362;2023-02-26T01:55:14;6.50;99.90
37788;DHT22;23627;53.302;-6.362;2023-02-26T01:57:41;6.50;99.90
37788;DHT22;23627;53.302;-6.362;2023-02-26T02:00:07;6.50;99.90
37788;DHT22;23627;53.302;-6.362;2023-02-26T02:02:33;6.50;99.90
37788;DHT22;23627;53.302;-6.362;2023-02-26T02:05:00;6.50;99.90
37788;DHT22;23627;53.302;-6.362;2023-02-26T02:07:28;6.50;99.90
37788;DHT22;23627;53.302;-6.362;2023-02-26T02:09:54;6.50;99.90
37788;DHT22;23627;53.302;-6.362;2023-02-26T02:23:06;6.40;99.90
37788;DHT22;23627;53.302;-6.362;2023-02-26T02:32:37;6.30;99.90
37788;DHT22;23627;53.302;-6.362;2023-02-26T02:35:12;6.30;99.90
37788;DHT22;23627;53.302;-6.362;2023-02-26T02:37:47;6.30;99.90
37788;DHT22;23627;53.302;-6.362;2023-02-26T02:40:17;6.30;99.90
37788;DHT22;23627;53.302;-6.362;2023-02-26T02:42:45;6.20;99.90
37788;DHT22;23627;53.302;-6.362;2023-02-26T02:45:20;6.20;99.90
37788;DHT22;23627;53.302;-6.362;2023-02-26T02:47:49;6.20;99.90
37788;DHT22;23627;53.302;-6.362;2023-02-26T02:50:23;6.20;99.90
37788;DHT22;23627;53.302;-6.362;2023-02-26T02:52:52;6.10;99.90
37788;DHT22;23627;53.302;-6.362;2023-02-26T02:55:20;6.10;99.90
37788;DHT22;23627;53.302;-6.362;2023-02-26T02:57:51;6.10;99.90
37788;DHT22;23627;53.302;-6.362;2023-02-26T03:00:18;6.00;99.90
37788;DHT22;23627;53.302;-6.362;2023-02-26T03:05:50;6.00;99.90
37788;DHT22;23627;53.302;-6.362;2023-02-26T03:08:17;6.00;99.90
37788;DHT22;23627;53.302;-6.362;2023-02-26T03:10:44;5.90;99.90
37788;DHT22;23627;53.302;-6.362;2023-02-26T03:13:13;5.90;99.90
37788;DHT22;23627;53.302;-6.362;2023-02-26T03:15:45;5.90;99.90
37788;DHT22;23627;53.302;-6.362;2023-02-26T03:18:17;5.90;99.90
37788;DHT22;23627;53.302;-6.362;2023-02-26T03:23:28;5.90;99.90
37788;DHT22;23627;53.302;-6.362;2023-02-26T03:25:59;5.90;99.90
37788;DHT22;23627;53.302;-6.362;2023-02-26T03:28:37;5.90;99.90
37788;DHT22;23627;53.302;-6.362;2023-02-26T03:31:06;5.90;99.90
37788;DHT22;23627;53.302;-6.362;2023-02-26T03:33:46;5.90;99.90
37788;DHT22;23627;53.302;-6.362;2023-02-26T03:36:31;5.90;99.90
37788;DHT22;23627;53.302;-6.362;2023-02-26T03:41:32;5.90;99.90
37788;DHT22;23627;53.302;-6.362;2023-02-26T03:44:21;5.90;99.90
37788;DHT22;23627;53.302;-6.362;2023-02-26T03:46:47;5.90;99.90
37788;DHT22;23627;53.302;-6.362;2023-02-26T03:49:17;5.90;99.90
37788;DHT22;23627;53.302;-6.362;2023-02-26T03:51:45;5.90;99.90
37788;DHT22;23627;53.302;-6.362;2023-02-26T03:54:33;5.90;99.90
37788;DHT22;23627;53.302;-6.362;2023-02-26T03:57:01;6.00;99.90
37788;DHT22;23627;53.302;-6.362;2023-02-26T03:59:27;6.00;99.90
37788;DHT22;23627;53.302;-6.362;2023-02-26T04:01:54;6.00;99.90
37788;DHT22;23627;53.302;-6.362;2023-02-26T04:07:10;5.90;99.90
37788;DHT22;23627;53.302;-6.362;2023-02-26T04:09:39;6.00;99.90
37788;DHT22;23627;53.302;-6.362;2023-02-26T04:12:04;5.90;99.90
37788;DHT22;23627;53.302;-6.362;2023-02-26T04:14:30;5.90;99.90
37788;DHT22;23627;53.302;-6.362;2023-02-26T04:16:56;6.00;99.90
37788;DHT22;23627;53.302;-6.362;2023-02-26T04:19:21;6.00;99.90
37788;DHT22;23627;53.302;-6.362;2023-02-26T04:21:47;5.90;99.90
37788;DHT22;23627;53.302;-6.362;2023-02-26T04:24:12;5.90;99.90
37788;DHT22;23627;53.302;-6.362;2023-02-26T04:26:38;5.90;99.90
37788;DHT22;23627;53.302;-6.362;2023-02-26T04:29:03;6.00;99.90
37788;DHT22;23627;53.302;-6.362;2023-02-26T04:31:29;6.00;99.90
37788;DHT22;23627;53.302;-6.362;2023-02-26T04:33:55;5.90;99.90
37788;DHT22;23627;53.302;-6.362;2023-02-26T04:36:20;6.00;99.90
37788;DHT22;23627;53.302;-6.362;2023-02-26T04:38:46;6.00;99.90
37788;DHT22;23627;53.302;-6.362;2023-02-26T04:41:11;6.00;99.90
37788;DHT22;23627;53.302;-6.362;2023-02-26T04:43:37;6.00;99.90
37788;DHT22;23627;53.302;-6.362;2023-02-26T04:46:03;6.00;99.90
37788;DHT22;23627;53.302;-6.362;2023-02-26T04:48:28;6.00;99.90
37788;DHT22;23627;53.302;-6.362;2023-02-26T04:50:54;6.00;99.90
37788;DHT22;23627;53.302;-6.362;2023-02-26T04:53:19;6.00;99.90
37788;DHT22;23627;53.302;-6.362;2023-02-26T04:55:48;6.00;99.90
37788;DHT22;23627;53.302;-6.362;2023-02-26T04:58:14;6.00;99.90
37788;DHT22;23627;53.302;-6.362;2023-02-26T05:00:39;6.00;99.90
37788;DHT22;23627;53.302;-6.362;2023-02-26T05:03:05;6.00;99.90
37788;DHT22;23627;53.302;-6.362;2023-02-26T05:05:31;6.00;99.90
37788;DHT22;23627;53.302;-6.362;2023-02-26T05:07:56;6.00;99.90
37788;DHT22;23627;53.302;-6.362;2023-02-26T05:10:23;6.00;99.90
37788;DHT22;23627;53.302;-6.362;2023-02-26T05:12:49;6.00;99.90
37788;DHT22;23627;53.302;-6.362;2023-02-26T05:15:14;6.00;99.90
37788;DHT22;23627;53.302;-6.362;2023-02-26T05:17:40;6.00;99.90
37788;DHT22;23627;53.302;-6.362;2023-02-26T05:20:06;6.00;99.90
37788;DHT22;23627;53.302;-6.362;2023-02-26T05:22:34;6.00;99.90
37788;DHT22;23627;53.302;-6.362;2023-02-26T05:25:00;6.00;99.90
37788;DHT22;23627;53.302;-6.362;2023-02-26T05:27:26;6.00;99.90
37788;DHT22;23627;53.302;-6.362;2023-02-26T05:29:51;6.00;99.90
37788;DHT22;23627;53.302;-6.362;2023-02-26T05:32:17;6.00;99.90
37788;DHT22;23627;53.302;-6.362;2023-02-26T05:34:42;6.00;99.90
37788;DHT22;23627;53.302;-6.362;2023-02-26T05:37:08;6.00;99.90
37788;DHT22;23627;53.302;-6.362;2023-02-26T05:39:33;6.00;99.90
37788;DHT22;23627;53.302;-6.362;2023-02-26T05:41:59;6.00;99.90
37788;DHT22;23627;53.302;-6.362;2023-02-26T05:44:25;6.00;99.90
37788;DHT22;23627;53.302;-6.362;2023-02-26T05:46:50;6.00;99.90
37788;DHT22;23627;53.302;-6.362;2023-02-26T05:49:16;6.00;99.90
37788;DHT22;23627;53.302;-6.362;2023-02-26T05:51:42;6.00;99.90
37788;DHT22;23627;53.302;-6.362;2023-02-26T05:54:08;6.00;99.90
37788;DHT22;23627;53.302;-6.362;2023-02-26T05:56:34;6.00;99.90
37788;DHT22;23627;53.302;-6.362;2023-02-26T05:59:00;6.00;99.90
37788;DHT22;23627;53.302;-6.362;2023-02-26T06:01:25;6.00;99.90
37788;DHT22;23627;53.302;-6.362;2023-02-26T06:03:51;6.00;99.90
37788;DHT22;23627;53.302;-6.362;2023-02-26T06:06:16;6.00;99.90
37788;DHT22;23627;53.302;-6.362;2023-02-26T06:08:45;6.00;99.90
37788;DHT22;23627;53.302;-6.362;2023-02-26T06:11:11;6.00;99.90
37788;DHT22;23627;53.302;-6.362;2023-02-26T06:13:37;6.00;99.90
37788;DHT22;23627;53.302;-6.362;2023-02-26T06:16:03;6.00;99.90
37788;DHT22;23627;53.302;-6.362;2023-02-26T06:18:28;6.00;99.90
37788;DHT22;23627;53.302;-6.362;2023-02-26T06:20:56;6.00;99.90
37788;DHT22;23627;53.302;-6.362;2023-02-26T06:23:22;6.00;99.90
37788;DHT22;23627;53.302;-6.362;2023-02-26T06:25:49;6.00;99.90
37788;DHT22;23627;53.302;-6.362;2023-02-26T06:28:14;6.00;99.90
37788;DHT22;23627;53.302;-6.362;2023-02-26T06:30:40;6.00;99.90
37788;DHT22;23627;53.302;-6.362;2023-02-26T06:33:06;6.00;99.90
37788;DHT22;23627;53.302;-6.362;2023-02-26T06:35:31;6.00;99.90
37788;DHT22;23627;53.302;-6.362;2023-02-26T06:37:57;6.00;99.90
37788;DHT22;23627;53.302;-6.362;2023-02-26T06:40:23;6.00;99.90
37788;DHT22;23627;53.302;-6.362;2023-02-26T06:42:48;6.00;99.90
37788;DHT22;23627;53.302;-6.362;2023-02-26T06:45:14;6.00;99.90
37788;DHT22;23627;53.302;-6.362;2023-02-26T06:47:39;6.00;99.90
37788;DHT22;23627;53.302;-6.362;2023-02-26T06:50:05;6.00;99.90
37788;DHT22;23627;53.302;-6.362;2023-02-26T06:52:31;6.00;99.90
37788;DHT22;23627;53.302;-6.362;2023-02-26T06:54:57;6.10;99.90
37788;DHT22;23627;53.302;-6.362;2023-02-26T06:57:22;6.00;99.90
37788;DHT22;23627;53.302;-6.362;2023-02-26T06:59:48;6.10;99.90
37788;DHT22;23627;53.302;-6.362;2023-02-26T07:02:15;6.10;99.90
37788;DHT22;23627;53.302;-6.362;2023-02-26T07:04:42;6.10;99.90
37788;DHT22;23627;53.302;-6.362;2023-02-26T07:07:07;6.10;99.90
37788;DHT22;23627;53.302;-6.362;2023-02-26T07:09:33;6.10;99.90
37788;DHT22;23627;53.302;-6.362;2023-02-26T07:11:59;6.10;99.90
37788;DHT22;23627;53.302;-6.362;2023-02-26T07:14:24;6.20;99.90
37788;DHT22;23627;53.302;-6.362;2023-02-26T07:16:50;6.20;99.90
37788;DHT22;23627;53.302;-6.362;2023-02-26T07:19:15;6.20;99.90
37788;DHT22;23627;53.302;-6.362;2023-02-26T07:21:41;6.20;99.90
37788;DHT22;23627;53.302;-6.362;2023-02-26T07:24:07;6.20;99.90
37788;DHT22;23627;53.302;-6.362;2023-02-26T07:26:32;6.20;99.90
37788;DHT22;23627;53.302;-6.362;2023-02-26T07:28:58;6.20;99.90
37788;DHT22;23627;53.302;-6.362;2023-02-26T07:31:24;6.20;99.90
37788;DHT22;23627;53.302;-6.362;2023-02-26T07:33:49;6.30;99.90
37788;DHT22;23627;53.302;-6.362;2023-02-26T07:36:15;6.30;99.90
37788;DHT22;23627;53.302;-6.362;2023-02-26T07:38:41;6.30;99.90
37788;DHT22;23627;53.302;-6.362;2023-02-26T07:41:07;6.30;99.90
37788;DHT22;23627;53.302;-6.362;2023-02-26T07:43:32;6.30;99.90
37788;DHT22;23627;53.302;-6.362;2023-02-26T07:49:27;6.30;99.90
37788;DHT22;23627;53.302;-6.362;2023-02-26T07:51:53;6.30;99.90
37788;DHT22;23627;53.302;-6.362;2023-02-26T07:54:19;6.30;99.90
37788;DHT22;23627;53.302;-6.362;2023-02-26T07:56:44;6.30;99.90
37788;DHT22;23627;53.302;-6.362;2023-02-26T07:59:10;6.40;99.90
37788;DHT22;23627;53.302;-6.362;2023-02-26T08:01:36;6.30;99.90
37788;DHT22;23627;53.302;-6.362;2023-02-26T08:04:01;6.30;99.90
37788;DHT22;23627;53.302;-6.362;2023-02-26T08:06:27;6.30;99.90
37788;DHT22;23627;53.302;-6.362;2023-02-26T08:08:53;6.40;99.90
37788;DHT22;23627;53.302;-6.362;2023-02-26T08:11:19;6.40;99.90
37788;DHT22;23627;53.302;-6.362;2023-02-26T08:13:45;6.40;99.90
37788;DHT22;23627;53.302;-6.362;2023-02-26T08:16:10;6.40;99.90
37788;DHT22;23627;53.302;-6.362;2023-02-26T08:18:36;6.40;99.90
37788;DHT22;23627;53.302;-6.362;2023-02-26T08:21:02;6.40;99.90
37788;DHT22;23627;53.302;-6.362;2023-02-26T08:23:27;6.40;99.90
37788;DHT22;23627;53.302;-6.362;2023-02-26T08:26:00;6.40;99.90
37788;DHT22;23627;53.302;-6.362;2023-02-26T08:28:26;6.40;99.90
37788;DHT22;23627;53.302;-6.362;2023-02-26T08:30:52;6.50;99.90
37788;DHT22;23627;53.302;-6.362;2023-02-26T08:33:18;6.50;99.90
37788;DHT22;23627;53.302;-6.362;2023-02-26T08:35:43;6.50;99.90
37788;DHT22;23627;53.302;-6.362;2023-02-26T08:38:09;6.50;99.90
37788;DHT22;23627;53.302;-6.362;2023-02-26T08:40:35;6.60;99.90
37788;DHT22;23627;53.302;-6.362;2023-02-26T08:43:00;6.60;99.90
37788;DHT22;23627;53.302;-6.362;2023-02-26T08:45:28;6.60;99.90
37788;DHT22;23627;53.302;-6.362;2023-02-26T08:47:53;6.70;99.90
37788;DHT22;23627;53.302;-6.362;2023-02-26T08:50:20;6.70;99.90
37788;DHT22;23627;53.302;-6.362;2023-02-26T08:52:45;6.80;99.90
37788;DHT22;23627;53.302;-6.362;2023-02-26T08:55:11;6.80;99.90
37788;DHT22;23627;53.302;-6.362;2023-02-26T08:57:36;6.80;99.90
37788;DHT22;23627;53.302;-6.362;2023-02-26T09:00:03;6.90;99.90
37788;DHT22;23627;53.302;-6.362;2023-02-26T09:02:29;6.90;99.90
37788;DHT22;23627;53.302;-6.362;2023-02-26T09:04:55;6.90;99.90
37788;DHT22;23627;53.302;-6.362;2023-02-26T09:07:20;6.90;99.90
37788;DHT22;23627;53.302;-6.362;2023-02-26T09:09:46;6.90;99.90
37788;DHT22;23627;53.302;-6.362;2023-02-26T09:12:11;6.90;99.90
37788;DHT22;23627;53.302;-6.362;2023-02-26T09:14:37;6.90;99.90
37788;DHT22;23627;53.302;-6.362;2023-02-26T09:17:03;6.90;99.90
37788;DHT22;23627;53.302;-6.362;2023-02-26T09:19:28;7.00;99.90
37788;DHT22;23627;53.302;-6.362;2023-02-26T09:21:54;7.00;99.90
37788;DHT22;23627;53.302;-6.362;2023-02-26T09:24:20;7.10;99.90
37788;DHT22;23627;53.302;-6.362;2023-02-26T09:26:45;7.10;99.90
37788;DHT22;23627;53.302;-6.362;2023-02-26T09:29:11;7.10;99.90
37788;DHT22;23627;53.302;-6.362;2023-02-26T09:31:38;7.20;99.90
37788;DHT22;23627;53.302;-6.362;2023-02-26T09:34:04;7.20;99.90
37788;DHT22;23627;53.302;-6.362;2023-02-26T09:36:30;7.20;99.90
37788;DHT22;23627;53.302;-6.362;2023-02-26T09:38:55;7.20;99.90
37788;DHT22;23627;53.302;-6.362;2023-02-26T09:41:29;7.20;99.90
37788;DHT22;23627;53.302;-6.362;2023-02-26T09:44:06;7.20;99.90
37788;DHT22;23627;53.302;-6.362;2023-02-26T09:46:38;7.30;99.90
37788;DHT22;23627;53.302;-6.362;2023-02-26T09:51:37;7.30;99.90
37788;DHT22;23627;53.302;-6.362;2023-02-26T09:54:05;7.30;99.90
37788;DHT22;23627;53.302;-6.362;2023-02-26T09:56:34;7.30;99.90
37788;DHT22;23627;53.302;-6.362;2023-02-26T09:59:01;7.40;99.90
37788;DHT22;23627;53.302;-6.362;2023-02-26T10:12:11;7.70;99.90
37788;DHT22;23627;53.302;-6.362;2023-02-26T10:14:46;7.70;99.90
37788;DHT22;23627;53.302;-6.362;2023-02-26T10:17:19;7.80;99.90
37788;DHT22;23627;53.302;-6.362;2023-02-26T10:19:47;7.80;99.90
37788;DHT22;23627;53.302;-6.362;2023-02-26T10:24:43;7.80;99.90
37788;DHT22;23627;53.302;-6.362;2023-02-26T10:27:13;7.90;99.90
37788;DHT22;23627;53.302;-6.362;2023-02-26T10:30:02;7.90;99.90
37788;DHT22;23627;53.302;-6.362;2023-02-26T10:32:32;7.90;99.90
37788;DHT22;23627;53.302;-6.362;2023-02-26T10:35:02;7.90;99.90
37788;DHT22;23627;53.302;-6.362;2023-02-26T10:40:17;8.00;99.90
37788;DHT22;23627;53.302;-6.362;2023-02-26T10:42:51;8.00;99.90
37788;DHT22;23627;53.302;-6.362;2023-02-26T10:48:06;8.20;99.90
37788;DHT22;23627;53.302;-6.362;2023-02-26T10:50:33;8.40;99.90
37788;DHT22;23627;53.302;-6.362;2023-02-26T10:52:59;8.50;99.90
37788;DHT22;23627;53.302;-6.362;2023-02-26T10:55:42;8.60;99.90
37788;DHT22;23627;53.302;-6.362;2023-02-26T11:00:35;8.80;99.90
37788;DHT22;23627;53.302;-6.362;2023-02-26T11:03:02;8.80;99.90
37788;DHT22;23627;53.302;-6.362;2023-02-26T11:05:29;8.90;99.90
37788;DHT22;23627;53.302;-6.362;2023-02-26T11:08:04;8.90;99.90
37788;DHT22;23627;53.302;-6.362;2023-02-26T11:10:46;8.90;99.90
37788;DHT22;23627;53.302;-6.362;2023-02-26T11:13:12;8.90;99.90
37788;DHT22;23627;53.302;-6.362;2023-02-26T11:15:38;9.00;99.90
37788;DHT22;23627;53.302;-6.362;2023-02-26T11:18:03;9.10;99.90
37788;DHT22;23627;53.302;-6.362;2023-02-26T11:20:34;9.00;99.90
37788;DHT22;23627;53.302;-6.362;2023-02-26T11:23:01;9.00;99.90
37788;DHT22;23627;53.302;-6.362;2023-02-26T11:25:28;9.00;99.90
37788;DHT22;23627;53.302;-6.362;2023-02-26T11:27:59;9.00;99.90
37788;DHT22;23627;53.302;-6.362;2023-02-26T11:30:26;9.00;99.90
37788;DHT22;23627;53.302;-6.362;2023-02-26T11:32:52;9.00;99.90
37788;DHT22;23627;53.302;-6.362;2023-02-26T11:35:19;9.00;99.90
37788;DHT22;23627;53.302;-6.362;2023-02-26T11:37:47;9.00;99.90
37788;DHT22;23627;53.302;-6.362;2023-02-26T11:40:17;9.00;99.90
37788;DHT22;23627;53.302;-6.362;2023-02-26T11:42:51;9.00;99.90
37788;DHT22;23627;53.302;-6.362;2023-02-26T11:45:18;9.00;99.90
37788;DHT22;23627;53.302;-6.362;2023-02-26T11:47:44;9.00;99.90
37788;DHT22;23627;53.302;-6.362;2023-02-26T11:50:15;9.00;99.90
37788;DHT22;23627;53.302;-6.362;2023-02-26T11:52:43;9.00;99.90
37788;DHT22;23627;53.302;-6.362;2023-02-26T11:55:20;9.10;99.90
37788;DHT22;23627;53.302;-6.362;2023-02-26T11:57:49;9.10;99.90
37788;DHT22;23627;53.302;-6.362;2023-02-26T12:00:28;9.20;99.90
37788;DHT22;23627;53.302;-6.362;2023-02-26T12:03:01;9.20;99.90
37788;DHT22;23627;53.302;-6.362;2023-02-26T12:05:29;9.30;99.90
37788;DHT22;23627;53.302;-6.362;2023-02-26T12:07:55;9.30;99.90
37788;DHT22;23627;53.302;-6.362;2023-02-26T12:10:22;9.30;99.90
37788;DHT22;23627;53.302;-6.362;2023-02-26T12:15:49;9.30;99.90
37788;DHT22;23627;53.302;-6.362;2023-02-26T12:20:55;9.40;99.90
37788;DHT22;23627;53.302;-6.362;2023-02-26T12:28:33;9.40;99.90
37788;DHT22;23627;53.302;-6.362;2023-02-26T12:41:47;9.70;99.90
37788;DHT22;23627;53.302;-6.362;2023-02-26T12:57:03;10.20;99.90
37788;DHT22;23627;53.302;-6.362;2023-02-26T12:59:55;10.20;99.90
37788;DHT22;23627;53.302;-6.362;2023-02-26T13:12:51;10.20;99.90
37788;DHT22;23627;53.302;-6.362;2023-02-26T13:20:25;10.20;99.90
37788;DHT22;23627;53.302;-6.362;2023-02-26T13:23:13;10.20;99.90
37788;DHT22;23627;53.302;-6.362;2023-02-26T13:25:38;10.20;99.90
37788;DHT22;23627;53.302;-6.362;2023-02-26T13:28:22;10.10;99.90
37788;DHT22;23627;53.302;-6.362;2023-02-26T13:30:51;10.10;99.90
37788;DHT22;23627;53.302;-6.362;2023-02-26T13:33:18;10.00;99.90
37788;DHT22;23627;53.302;-6.362;2023-02-26T13:44:34;9.80;99.90
37788;DHT22;23627;53.302;-6.362;2023-02-26T13:49:40;9.90;99.90
37788;DHT22;23627;53.302;-6.362;2023-02-26T13:52:30;9.90;99.90
37788;DHT22;23627;53.302;-6.362;2023-02-26T13:54:56;10.00;99.90
37788;DHT22;23627;53.302;-6.362;2023-02-26T13:59:53;10.10;99.90
37788;DHT22;23627;53.302;-6.362;2023-02-26T14:04:49;10.00;99.90
37788;DHT22;23627;53.302;-6.362;2023-02-26T14:07:15;10.00;99.90
37788;DHT22;23627;53.302;-6.362;2023-02-26T14:09:55;10.00;99.90
37788;DHT22;23627;53.302;-6.362;2023-02-26T14:12:22;10.00;99.90
37788;DHT22;23627;53.302;-6.362;2023-02-26T14:17:28;10.10;99.90
37788;DHT22;23627;53.302;-6.362;2023-02-26T14:27:31;10.00;99.90
37788;DHT22;23627;53.302;-6.362;2023-02-26T14:30:46;10.00;99.90
37788;DHT22;23627;53.302;-6.362;2023-02-26T14:35:42;9.90;99.90
37788;DHT22;23627;53.302;-6.362;2023-02-26T14:38:17;9.90;99.90
37788;DHT22;23627;53.302;-6.362;2023-02-26T14:40:58;9.90;99.90
37788;DHT22;23627;53.302;-6.362;2023-02-26T14:43:33;9.90;99.90
37788;DHT22;23627;53.302;-6.362;2023-02-26T14:46:01;9.80;99.90
37788;DHT22;23627;53.302;-6.362;2023-02-26T14:48:28;9.80;99.90
37788;DHT22;23627;53.302;-6.362;2023-02-26T14:58:40;9.90;99.90
37788;DHT22;23627;53.302;-6.362;2023-02-26T15:08:49;9.90;99.90
37788;DHT22;23627;53.302;-6.362;2023-02-26T15:19:05;10.00;99.90
37788;DHT22;23627;53.302;-6.362;2023-02-26T15:24:03;10.20;99.90
37788;DHT22;23627;53.302;-6.362;2023-02-26T15:28:55;10.20;99.90
37788;DHT22;23627;53.302;-6.362;2023-02-26T15:31:27;10.20;99.90
37788;DHT22;23627;53.302;-6.362;2023-02-26T15:33:55;10.10;99.90
37788;DHT22;23627;53.302;-6.362;2023-02-26T15:36:24;10.10;99.90
37788;DHT22;23627;53.302;-6.362;2023-02-26T15:38:58;10.00;99.90
37788;DHT22;23627;53.302;-6.362;2023-02-26T15:41:29;10.00;99.90
37788;DHT22;23627;53.302;-6.362;2023-02-26T15:44:03;9.90;99.90
37788;DHT22;23627;53.302;-6.362;2023-02-26T15:46:33;10.00;99.90
37788;DHT22;23627;53.302;-6.362;2023-02-26T15:49:01;10.00;99.90
37788;DHT22;23627;53.302;-6.362;2023-02-26T15:51:31;10.00;99.90
37788;DHT22;23627;53.302;-6.362;2023-02-26T15:53:57;9.90;99.90
37788;DHT22;23627;53.302;-6.362;2023-02-26T15:56:30;9.90;99.90
37788;DHT22;23627;53.302;-6.362;2023-02-26T15:58:57;9.80;99.90
37788;DHT22;23627;53.302;-6.362;2023-02-26T16:01:28;9.80;99.90
37788;DHT22;23627;53.302;-6.362;2023-02-26T16:03:59;9.70;99.90
37788;DHT22;23627;53.302;-6.362;2023-02-26T16:06:33;9.70;99.90
37788;DHT22;23627;53.302;-6.362;2023-02-26T16:08:59;9.70;99.90
37788;DHT22;23627;53.302;-6.362;2023-02-26T16:11:30;9.60;99.90
37788;DHT22;23627;53.302;-6.362;2023-02-26T16:14:00;9.60;99.90
37788;DHT22;23627;53.302;-6.362;2023-02-26T16:19:30;9.50;99.90
37788;DHT22;23627;53.302;-6.362;2023-02-26T16:21:56;9.40;99.90
37788;DHT22;23627;53.302;-6.362;2023-02-26T16:24:24;9.30;99.90
37788;DHT22;23627;53.302;-6.362;2023-02-26T16:27:00;9.20;99.90
37788;DHT22;23627;53.302;-6.362;2023-02-26T16:29:29;9.10;99.90
37788;DHT22;23627;53.302;-6.362;2023-02-26T16:31:56;9.00;99.90
37788;DHT22;23627;53.302;-6.362;2023-02-26T16:34:26;9.10;99.90
37788;DHT22;23627;53.302;-6.362;2023-02-26T16:36:55;9.20;99.90
37788;DHT22;23627;53.302;-6.362;2023-02-26T16:39:25;9.30;99.90
37788;DHT22;23627;53.302;-6.362;2023-02-26T16:42:30;9.50;99.90
37788;DHT22;23627;53.302;-6.362;2023-02-26T16:44:49;9.60;99.90
37788;DHT22;23627;53.302;-6.362;2023-02-26T16:47:15;9.70;99.90
37788;DHT22;23627;53.302;-6.362;2023-02-26T16:49:42;9.70;99.90
37788;DHT22;23627;53.302;-6.362;2023-02-26T16:52:11;9.70;99.90
37788;DHT22;23627;53.302;-6.362;2023-02-26T16:54:39;9.70;99.90
37788;DHT22;23627;53.302;-6.362;2023-02-26T16:57:06;9.60;99.90
37788;DHT22;23627;53.302;-6.362;2023-02-26T16:59:36;9.60;99.90
37788;DHT22;23627;53.302;-6.362;2023-02-26T17:04:43;9.50;99.90
37788;DHT22;23627;53.302;-6.362;2023-02-26T17:07:21;9.50;99.90
37788;DHT22;23627;53.302;-6.362;2023-02-26T17:09:48;9.40;99.90
37788;DHT22;23627;53.302;-6.362;2023-02-26T17:12:15;9.40;99.90
37788;DHT22;23627;53.302;-6.362;2023-02-26T17:14:45;9.40;99.90
37788;DHT22;23627;53.302;-6.362;2023-02-26T17:17:12;9.40;99.90
37788;DHT22;23627;53.302;-6.362;2023-02-26T17:19:37;9.40;99.90
37788;DHT22;23627;53.302;-6.362;2023-02-26T17:22:03;9.40;99.90
37788;DHT22;23627;53.302;-6.362;2023-02-26T17:24:33;9.30;99.90
37788;DHT22;23627;53.302;-6.362;2023-02-26T17:27:00;9.30;99.90
37788;DHT22;23627;53.302;-6.362;2023-02-26T17:29:31;9.30;99.90
37788;DHT22;23627;53.302;-6.362;2023-02-26T17:31:57;9.20;99.90
37788;DHT22;23627;53.302;-6.362;2023-02-26T17:34:23;9.10;99.90
37788;DHT22;23627;53.302;-6.362;2023-02-26T17:36:49;9.10;99.90
37788;DHT22;23627;53.302;-6.362;2023-02-26T17:39:14;9.00;99.90
37788;DHT22;23627;53.302;-6.362;2023-02-26T17:41:43;9.00;99.90
37788;DHT22;23627;53.302;-6.362;2023-02-26T17:44:09;8.90;99.90
37788;DHT22;23627;53.302;-6.362;2023-02-26T17:46:35;8.90;99.90
37788;DHT22;23627;53.302;-6.362;2023-02-26T17:49:00;8.80;99.90
37788;DHT22;23627;53.302;-6.362;2023-02-26T17:51:26;8.80;99.90
37788;DHT22;23627;53.302;-6.362;2023-02-26T17:53:52;8.70;99.90
37788;DHT22;23627;53.302;-6.362;2023-02-26T17:56:22;8.70;99.90
37788;DHT22;23627;53.302;-6.362;2023-02-26T17:58:48;8.60;99.90
37788;DHT22;23627;53.302;-6.362;2023-02-26T18:01:15;8.60;99.90
37788;DHT22;23627;53.302;-6.362;2023-02-26T18:03:41;8.60;99.90
37788;DHT22;23627;53.302;-6.362;2023-02-26T18:06:08;8.50;99.90
37788;DHT22;23627;53.302;-6.362;2023-02-26T18:08:35;8.50;99.90
37788;DHT22;23627;53.302;-6.362;2023-02-26T18:11:02;8.50;99.90
37788;DHT22;23627;53.302;-6.362;2023-02-26T18:13:27;8.50;99.90
37788;DHT22;23627;53.302;-6.362;2023-02-26T18:15:53;8.40;99.90
37788;DHT22;23627;53.302;-6.362;2023-02-26T18:18:21;8.40;99.90
37788;DHT22;23627;53.302;-6.362;2023-02-26T18:20:46;8.40;99.90
37788;DHT22;23627;53.302;-6.362;2023-02-26T18:23:12;8.40;99.90
37788;DHT22;23627;53.302;-6.362;2023-02-26T18:25:40;8.30;99.90
37788;DHT22;23627;53.302;-6.362;2023-02-26T18:31:05;8.30;99.90
37788;DHT22;23627;53.302;-6.362;2023-02-26T18:33:34;8.30;99.90
37788;DHT22;23627;53.302;-6.362;2023-02-26T18:36:02;8.20;99.90
37788;DHT22;23627;53.302;-6.362;2023-02-26T18:38:28;8.20;99.90
37788;DHT22;23627;53.302;-6.362;2023-02-26T18:40:53;8.20;99.90
37788;DHT22;23627;53.302;-6.362;2023-02-26T18:43:19;8.20;99.90